createdAt,value
2018-12-24T00:01:17.103Z,100.00
2018-12-24T00:03:48.886Z,100.00
2018-12-24T00:06:20.276Z,100.00
2018-12-24T00:08:51.796Z,100.00
2018-12-24T00:11:23.220Z,100.00
2018-12-24T00:13:54.843Z,100.00
2018-12-24T00:16:26.181Z,100.00
2018-12-24T00:18:58.557Z,100.00
2018-12-24T00:21:29.996Z,100.00
2018-12-24T00:24:01.805Z,100.00
2018-12-24T00:26:33.217Z,100.00
2018-12-24T00:29:04.659Z,100.00
2018-12-24T00:31:36.019Z,100.00
2018-12-24T00:34:07.467Z,100.00
2018-12-24T00:36:39.408Z,100.00
2018-12-24T00:39:11.122Z,100.00
2018-12-24T00:41:42.538Z,100.00
2018-12-24T00:44:14.007Z,100.00
2018-12-24T00:46:45.452Z,100.00
2018-12-24T00:49:16.835Z,100.00
2018-12-24T00:51:48.328Z,100.00
2018-12-24T00:54:19.717Z,100.00
2018-12-24T00:56:51.125Z,100.00
2018-12-24T00:59:22.493Z,100.00
2018-12-24T01:01:53.911Z,100.00
2018-12-24T01:04:25.320Z,100.00
2018-12-24T01:06:56.736Z,100.00
2018-12-24T01:09:28.182Z,100.00
2018-12-24T01:11:59.506Z,100.00
2018-12-24T01:14:30.869Z,100.00
2018-12-24T01:17:02.227Z,100.00
2018-12-24T01:19:33.612Z,100.00
2018-12-24T01:22:05.084Z,100.00
2018-12-24T01:24:36.527Z,100.00
2018-12-24T01:27:07.943Z,100.00
2018-12-24T01:29:39.325Z,100.00
2018-12-24T01:32:10.648Z,100.00
2018-12-24T01:34:42.005Z,100.00
2018-12-24T01:37:13.458Z,100.00
2018-12-24T01:39:44.811Z,100.00
2018-12-24T01:42:16.281Z,100.00
2018-12-24T01:44:47.709Z,100.00
2018-12-24T01:47:19.169Z,100.00
2018-12-24T01:49:50.690Z,100.00
2018-12-24T01:52:22.134Z,100.00
2018-12-24T01:54:53.529Z,100.00
2018-12-24T01:57:25.293Z,100.00
2018-12-24T01:59:57.046Z,100.00
2018-12-24T02:02:28.386Z,100.00
2018-12-24T02:04:59.881Z,100.00
2018-12-24T02:07:31.392Z,100.00
2018-12-24T02:10:03.293Z,100.00
2018-12-24T02:12:42.159Z,100.00
2018-12-24T02:15:08.335Z,100.00
2018-12-24T02:17:39.721Z,100.00
2018-12-24T02:20:12.312Z,100.00
2018-12-24T02:22:43.660Z,100.00
2018-12-24T02:25:15.073Z,100.00
2018-12-24T02:27:46.842Z,100.00
2018-12-24T02:30:19.265Z,100.00
2018-12-24T02:32:50.739Z,100.00
2018-12-24T02:35:22.312Z,100.00
2018-12-24T02:37:53.695Z,100.00
2018-12-24T02:40:25.055Z,100.00
2018-12-24T02:42:56.669Z,100.00
2018-12-24T02:45:28.395Z,100.00
2018-12-24T02:47:59.819Z,100.00
2018-12-24T02:50:31.191Z,100.00
2018-12-24T02:53:02.664Z,100.00
2018-12-24T02:55:34.070Z,100.00
2018-12-24T02:58:05.516Z,100.00
2018-12-24T03:00:36.868Z,100.00
2018-12-24T03:03:08.316Z,100.00
2018-12-24T03:05:39.685Z,100.00
2018-12-24T03:08:11.120Z,100.00
2018-12-24T03:10:42.461Z,100.00
2018-12-24T03:13:14.016Z,100.00
2018-12-24T03:15:45.369Z,100.00
2018-12-24T03:18:16.819Z,100.00
2018-12-24T03:20:48.180Z,100.00
2018-12-24T03:23:19.625Z,100.00
2018-12-24T03:25:50.966Z,100.00
2018-12-24T03:28:22.317Z,100.00
2018-12-24T03:30:53.717Z,100.00
2018-12-24T03:33:25.155Z,100.00
2018-12-24T03:35:56.649Z,100.00
2018-12-24T03:38:28.138Z,100.00
2018-12-24T03:41:00.356Z,100.00
2018-12-24T03:43:31.752Z,100.00
2018-12-24T03:46:03.090Z,100.00
2018-12-24T03:48:34.541Z,100.00
2018-12-24T03:51:05.887Z,100.00
2018-12-24T03:53:37.329Z,100.00
2018-12-24T03:56:08.734Z,100.00
2018-12-24T03:58:40.163Z,100.00
2018-12-24T04:01:11.594Z,100.00
2018-12-24T04:03:43.052Z,100.00
2018-12-24T04:06:14.392Z,100.00
2018-12-24T04:08:46.203Z,100.00
2018-12-24T04:11:17.663Z,100.00
2018-12-24T04:13:49.023Z,100.00
2018-12-24T04:16:23.388Z,100.00
2018-12-24T04:18:55.180Z,100.00
2018-12-24T04:21:26.579Z,100.00
2018-12-24T04:23:58.016Z,100.00
2018-12-24T04:26:29.561Z,100.00
2018-12-24T04:29:00.908Z,100.00
2018-12-24T04:31:32.316Z,100.00
2018-12-24T04:34:04.093Z,100.00
2018-12-24T04:36:35.571Z,100.00
2018-12-24T04:39:07.470Z,100.00
2018-12-24T04:41:38.967Z,100.00
2018-12-24T04:44:10.351Z,100.00
2018-12-24T04:46:41.770Z,100.00
2018-12-24T04:49:13.126Z,100.00
2018-12-24T04:51:44.554Z,100.00
2018-12-24T04:54:15.953Z,100.00
2018-12-24T04:56:47.411Z,100.00
2018-12-24T04:59:18.861Z,100.00
2018-12-24T05:01:50.697Z,100.00
2018-12-24T05:04:22.075Z,100.00
2018-12-24T05:06:53.412Z,100.00
2018-12-24T05:09:25.013Z,100.00
2018-12-24T05:11:56.426Z,100.00
2018-12-24T05:14:30.255Z,100.00
2018-12-24T05:17:01.677Z,100.00
2018-12-24T05:19:33.465Z,100.00
2018-12-24T05:22:05.424Z,100.00
2018-12-24T05:24:36.753Z,100.00
2018-12-24T05:27:08.107Z,100.00
2018-12-24T05:29:39.657Z,100.00
2018-12-24T05:32:11.337Z,100.00
2018-12-24T05:34:42.751Z,100.00
2018-12-24T05:37:14.206Z,100.00
2018-12-24T05:39:45.657Z,100.00
2018-12-24T05:42:17.476Z,100.00
2018-12-24T05:44:49.415Z,100.00
2018-12-24T05:47:20.742Z,100.00
2018-12-24T05:49:52.199Z,100.00
2018-12-24T05:52:23.516Z,100.00
2018-12-24T05:54:56.142Z,100.00
2018-12-24T05:57:27.558Z,100.00
2018-12-24T05:59:59.017Z,100.00
2018-12-24T06:02:30.571Z,100.00
2018-12-24T06:05:02.015Z,100.00
2018-12-24T06:07:33.375Z,100.00
2018-12-24T06:10:05.307Z,100.00
2018-12-24T06:12:36.671Z,100.00
2018-12-24T06:15:08.130Z,100.00
2018-12-24T06:17:39.483Z,100.00
2018-12-24T06:20:10.931Z,100.00
2018-12-24T06:22:42.274Z,100.00
2018-12-24T06:25:13.721Z,100.00
2018-12-24T06:27:45.189Z,100.00
2018-12-24T06:30:16.969Z,100.00
2018-12-24T06:32:48.588Z,100.00
2018-12-24T06:35:20.073Z,100.00
2018-12-24T06:37:51.492Z,100.00
2018-12-24T06:40:22.873Z,100.00
2018-12-24T06:42:54.265Z,100.00
2018-12-24T06:45:25.699Z,100.00
2018-12-24T06:47:57.041Z,100.00
2018-12-24T06:50:28.490Z,100.00
2018-12-24T06:52:59.880Z,100.00
2018-12-24T06:55:31.398Z,100.00
2018-12-24T06:58:02.767Z,100.00
2018-12-24T07:00:34.164Z,100.00
2018-12-24T07:03:05.511Z,100.00
2018-12-24T07:05:37.502Z,100.00
2018-12-24T07:08:08.926Z,100.00
2018-12-24T07:10:40.924Z,100.00
2018-12-24T07:13:12.295Z,100.00
2018-12-24T07:15:44.640Z,100.00
2018-12-24T07:18:17.074Z,100.00
2018-12-24T07:20:48.490Z,100.00
2018-12-24T07:23:19.836Z,100.00
2018-12-24T07:25:51.244Z,100.00
2018-12-24T07:28:22.606Z,100.00
2018-12-24T07:30:54.187Z,100.00
2018-12-24T07:33:26.559Z,100.00
2018-12-24T07:35:57.955Z,100.00
2018-12-24T07:38:31.319Z,100.00
2018-12-24T07:41:02.722Z,100.00
2018-12-24T07:43:34.168Z,100.00
2018-12-24T07:46:05.779Z,100.00
2018-12-24T07:48:37.246Z,100.00
2018-12-24T07:51:09.663Z,100.00
2018-12-24T07:53:41.149Z,100.00
2018-12-24T07:56:12.879Z,100.00
2018-12-24T07:58:44.625Z,100.00
2018-12-24T08:01:16.108Z,100.00
2018-12-24T08:03:47.621Z,100.00
2018-12-24T08:06:19.113Z,100.00
2018-12-24T08:08:50.879Z,100.00
2018-12-24T08:11:22.260Z,100.00
2018-12-24T08:13:53.712Z,100.00
2018-12-24T08:16:25.114Z,100.00
2018-12-24T08:18:56.475Z,100.00
2018-12-24T08:21:27.856Z,100.00
2018-12-24T08:23:59.326Z,100.00
2018-12-24T08:26:30.831Z,100.00
2018-12-24T08:29:02.366Z,100.00
2018-12-24T08:31:33.759Z,100.00
2018-12-24T08:34:05.452Z,100.00
2018-12-24T08:36:37.222Z,100.00
2018-12-24T08:39:08.665Z,100.00
2018-12-24T08:41:40.009Z,100.00
2018-12-24T08:44:11.495Z,100.00
2018-12-24T08:46:43.543Z,100.00
2018-12-24T08:49:15.113Z,100.00
2018-12-24T08:51:46.618Z,100.00
2018-12-24T08:54:18.135Z,100.00
2018-12-24T08:56:49.641Z,100.00
2018-12-24T08:59:21.108Z,100.00
2018-12-24T09:01:52.914Z,100.00
2018-12-24T09:04:24.444Z,100.00
2018-12-24T09:06:56.161Z,100.00
2018-12-24T09:09:27.602Z,100.00
2018-12-24T09:11:59.029Z,100.00
2018-12-24T09:14:30.817Z,100.00
2018-12-24T09:17:02.193Z,100.00
2018-12-24T09:19:34.239Z,100.00
2018-12-24T09:22:06.161Z,100.00
2018-12-24T09:24:37.829Z,100.00
2018-12-24T09:27:09.456Z,100.00
2018-12-24T09:29:42.526Z,100.00
2018-12-24T09:32:13.944Z,100.00
2018-12-24T09:34:45.500Z,100.00
2018-12-24T09:37:17.020Z,100.00
2018-12-24T09:39:48.483Z,100.00
2018-12-24T09:42:19.956Z,100.00
2018-12-24T09:44:58.726Z,100.00
2018-12-24T09:47:24.448Z,100.00
2018-12-24T09:49:55.884Z,100.00
2018-12-24T09:52:27.242Z,100.00
2018-12-24T09:54:58.679Z,100.00
2018-12-24T09:57:30.058Z,100.00
2018-12-24T10:00:01.510Z,100.00
2018-12-24T10:02:41.320Z,100.00
2018-12-24T10:05:14.582Z,100.00
2018-12-24T10:07:45.993Z,100.00
2018-12-24T10:10:19.804Z,100.00
2018-12-24T10:12:51.506Z,100.00
2018-12-24T10:15:22.982Z,100.00
2018-12-24T10:17:56.777Z,100.00
2018-12-24T10:20:30.127Z,100.00
2018-12-24T10:23:01.568Z,100.00
2018-12-24T10:25:33.026Z,100.00
2018-12-24T10:28:05.469Z,100.00
2018-12-24T10:30:36.967Z,100.00
2018-12-24T10:33:08.477Z,100.00
2018-12-24T10:35:39.950Z,100.00
2018-12-24T10:38:11.632Z,100.00
2018-12-24T10:40:57.179Z,100.00
2018-12-24T10:43:28.655Z,100.00
2018-12-24T10:46:00.363Z,100.00
2018-12-24T10:48:31.774Z,100.00
2018-12-24T10:51:03.275Z,100.00
2018-12-24T10:53:34.975Z,100.00
2018-12-24T10:56:06.546Z,100.00
2018-12-24T10:58:38.019Z,100.00
2018-12-24T11:01:09.484Z,100.00
2018-12-24T11:03:40.866Z,100.00
2018-12-24T11:06:12.272Z,100.00
2018-12-24T11:08:43.761Z,100.00
2018-12-24T11:11:16.997Z,100.00
2018-12-24T11:13:48.970Z,100.00
2018-12-24T11:16:20.545Z,100.00
2018-12-24T11:18:51.859Z,100.00
2018-12-24T11:21:23.408Z,100.00
2018-12-24T11:23:55.006Z,100.00
2018-12-24T11:26:26.437Z,100.00
2018-12-24T11:28:57.951Z,100.00
2018-12-24T11:31:29.985Z,100.00
2018-12-24T11:34:01.386Z,100.00
2018-12-24T11:36:32.885Z,100.00
2018-12-24T11:39:05.291Z,100.00
2018-12-24T11:41:36.669Z,100.00
2018-12-24T11:44:08.025Z,100.00
2018-12-24T11:46:39.745Z,100.00
2018-12-24T11:49:11.162Z,94.07
2018-12-24T11:51:42.588Z,85.32
2018-12-24T11:54:13.927Z,85.27
2018-12-24T11:56:45.416Z,77.25
2018-12-24T11:59:16.879Z,70.46
2018-12-24T12:01:48.607Z,69.24
2018-12-24T12:04:19.995Z,65.62
2018-12-24T12:06:51.396Z,67.07
2018-12-24T12:09:22.791Z,65.09
2018-12-24T12:11:54.180Z,65.14
2018-12-24T12:14:25.588Z,65.64
2018-12-24T12:16:57.160Z,70.06
2018-12-24T12:19:28.651Z,78.80
2018-12-24T12:22:00.118Z,83.88
2018-12-24T12:24:33.697Z,88.05
2018-12-24T12:27:05.189Z,90.44
2018-12-24T12:29:36.603Z,93.49
2018-12-24T12:32:08.079Z,95.55
2018-12-24T12:34:39.423Z,93.09
2018-12-24T12:37:10.884Z,97.09
2018-12-24T12:39:42.332Z,97.09
2018-12-24T12:42:14.058Z,96.81
2018-12-24T12:44:45.478Z,95.07
2018-12-24T12:47:16.967Z,96.71
2018-12-24T12:49:49.692Z,99.52
2018-12-24T12:52:21.166Z,100.00
2018-12-24T12:54:52.527Z,100.00
2018-12-24T12:57:24.149Z,100.00
2018-12-24T12:59:55.661Z,100.00
2018-12-24T13:02:27.092Z,100.00
2018-12-24T13:04:58.554Z,100.00
2018-12-24T13:07:29.974Z,99.53
2018-12-24T13:10:01.332Z,100.00
2018-12-24T13:12:33.356Z,99.34
2018-12-24T13:15:04.745Z,97.51
2018-12-24T13:17:36.168Z,98.66
2018-12-24T13:20:07.631Z,97.46
2018-12-24T13:22:39.108Z,98.98
2018-12-24T13:25:10.417Z,99.74
2018-12-24T13:27:41.873Z,97.67
2018-12-24T13:30:13.251Z,97.94
2018-12-24T13:32:44.985Z,99.26
2018-12-24T13:35:16.471Z,97.54
2018-12-24T13:37:47.927Z,98.22
2018-12-24T13:40:19.363Z,97.76
2018-12-24T13:42:50.799Z,97.50
2018-12-24T13:45:22.885Z,96.17
2018-12-24T13:47:54.336Z,96.24
2018-12-24T13:50:25.858Z,95.94
2018-12-24T13:52:57.737Z,95.54
2018-12-24T13:55:30.227Z,95.45
2018-12-24T13:58:01.649Z,92.92
2018-12-24T14:00:33.111Z,91.91
2018-12-24T14:03:04.581Z,93.12
2018-12-24T14:05:36.106Z,92.95
2018-12-24T14:08:07.689Z,92.10
2018-12-24T14:10:39.135Z,86.14
2018-12-24T14:13:10.614Z,87.29
2018-12-24T14:15:42.092Z,87.29
2018-12-24T14:18:13.484Z,87.23
2018-12-24T14:20:44.861Z,86.69
2018-12-24T14:23:16.401Z,86.19
2018-12-24T14:25:47.936Z,79.27
2018-12-24T14:28:19.492Z,79.27
2018-12-24T14:30:51.177Z,73.90
2018-12-24T14:33:22.625Z,70.32
2018-12-24T14:35:54.182Z,69.70
2018-12-24T14:38:25.625Z,67.55
2018-12-24T14:40:57.957Z,67.37
2018-12-24T14:43:29.400Z,67.00
2018-12-24T14:46:00.760Z,62.99
2018-12-24T14:48:32.225Z,64.58
2018-12-24T14:51:03.595Z,67.12
2018-12-24T14:53:35.102Z,73.19
2018-12-24T14:56:06.486Z,79.78
2018-12-24T14:58:38.109Z,83.83
2018-12-24T15:01:09.603Z,90.91
2018-12-24T15:03:41.059Z,90.91
2018-12-24T15:06:12.491Z,93.19
2018-12-24T15:08:44.020Z,94.83
2018-12-24T15:11:15.428Z,97.54
2018-12-24T15:13:47.581Z,99.64
2018-12-24T15:16:19.132Z,99.76
2018-12-24T15:18:50.596Z,100.00
2018-12-24T15:21:21.928Z,100.00
2018-12-24T15:23:53.316Z,100.00
2018-12-24T15:26:24.788Z,100.00
2018-12-24T15:28:56.349Z,100.00
2018-12-24T15:31:27.808Z,100.00
2018-12-24T15:33:59.220Z,100.00
2018-12-24T15:36:32.185Z,100.00
2018-12-24T15:39:05.581Z,100.00
2018-12-24T15:41:37.034Z,100.00
2018-12-24T15:44:08.604Z,100.00
2018-12-24T15:46:42.807Z,100.00
2018-12-24T15:49:14.149Z,100.00
2018-12-24T15:51:45.606Z,100.00
2018-12-24T15:54:17.128Z,100.00
2018-12-24T15:56:48.559Z,100.00
2018-12-24T15:59:21.575Z,100.00
2018-12-24T16:01:52.942Z,100.00
2018-12-24T16:04:24.366Z,100.00
2018-12-24T16:06:55.841Z,100.00
2018-12-24T16:09:27.271Z,100.00
2018-12-24T16:11:58.710Z,100.00
2018-12-24T16:14:30.183Z,100.00
2018-12-24T16:17:01.620Z,100.00
2018-12-24T16:19:33.170Z,100.00
2018-12-24T16:22:04.539Z,100.00
2018-12-24T16:24:35.948Z,100.00
2018-12-24T16:27:07.341Z,100.00
2018-12-24T16:29:38.756Z,100.00
2018-12-24T16:32:10.270Z,100.00
2018-12-24T16:34:41.649Z,100.00
2018-12-24T16:37:13.144Z,100.00
2018-12-24T16:39:44.642Z,100.00
2018-12-24T16:42:16.059Z,100.00
2018-12-24T16:44:47.507Z,100.00
2018-12-24T16:47:19.038Z,100.00
2018-12-24T16:49:50.518Z,100.00
2018-12-24T16:52:21.924Z,100.00
2018-12-24T16:54:53.362Z,100.00
2018-12-24T16:57:24.763Z,100.00
2018-12-24T16:59:56.637Z,100.00
2018-12-24T17:02:28.073Z,100.00
2018-12-24T17:04:59.471Z,100.00
2018-12-24T17:07:30.864Z,100.00
2018-12-24T17:10:02.321Z,100.00
2018-12-24T17:12:33.783Z,100.00
2018-12-24T17:15:05.647Z,100.00
2018-12-24T17:17:37.097Z,100.00
2018-12-24T17:20:08.475Z,100.00
2018-12-24T17:22:39.942Z,100.00
2018-12-24T17:25:11.398Z,100.00
2018-12-24T17:27:42.815Z,100.00
2018-12-24T17:30:14.272Z,100.00
2018-12-24T17:32:45.750Z,100.00
2018-12-24T17:35:18.434Z,100.00
2018-12-24T17:37:49.886Z,100.00
2018-12-24T17:40:21.227Z,100.00
2018-12-24T17:42:52.700Z,100.00
2018-12-24T17:45:25.742Z,100.00
2018-12-24T17:47:57.186Z,100.00
2018-12-24T17:50:29.900Z,100.00
2018-12-24T17:53:01.564Z,100.00
2018-12-24T17:55:34.832Z,100.00
2018-12-24T17:58:07.359Z,100.00
2018-12-24T18:00:38.905Z,100.00
2018-12-24T18:03:10.620Z,100.00
2018-12-24T18:05:42.043Z,100.00
2018-12-24T18:08:13.536Z,100.00
2018-12-24T18:10:45.006Z,100.00
2018-12-24T18:13:16.619Z,100.00
2018-12-24T18:15:48.421Z,100.00
2018-12-24T18:18:19.947Z,100.00
2018-12-24T18:20:51.327Z,100.00
2018-12-24T18:23:22.774Z,100.00
2018-12-24T18:25:54.536Z,100.00
2018-12-24T18:28:26.024Z,100.00
2018-12-24T18:30:57.651Z,100.00
2018-12-24T18:33:29.203Z,100.00
2018-12-24T18:36:00.817Z,100.00
2018-12-24T18:38:32.661Z,100.00
2018-12-24T18:41:05.409Z,100.00
2018-12-24T18:43:37.309Z,100.00
2018-12-24T18:46:09.524Z,100.00
2018-12-24T18:48:41.948Z,100.00
2018-12-24T18:51:16.369Z,100.00
2018-12-24T18:53:49.303Z,100.00
2018-12-24T18:56:21.128Z,100.00
2018-12-24T18:58:52.555Z,100.00
2018-12-24T19:01:24.048Z,100.00
2018-12-24T19:03:56.043Z,100.00
2018-12-24T19:06:27.517Z,100.00
2018-12-24T19:08:59.057Z,100.00
2018-12-24T19:11:30.983Z,100.00
2018-12-24T19:14:02.545Z,100.00
2018-12-24T19:16:34.072Z,100.00
2018-12-24T19:19:05.501Z,100.00
2018-12-24T19:21:43.869Z,100.00
2018-12-24T19:24:10.051Z,100.00
2018-12-24T19:26:42.088Z,100.00
2018-12-24T19:29:14.608Z,100.00
2018-12-24T19:31:47.152Z,100.00
2018-12-24T19:34:23.537Z,100.00
2018-12-24T19:36:55.350Z,100.00
2018-12-24T19:39:27.891Z,100.00
2018-12-24T19:42:02.477Z,100.00
2018-12-24T19:44:33.997Z,100.00
2018-12-24T19:47:09.199Z,100.00
2018-12-24T19:49:41.644Z,100.00
2018-12-24T19:52:14.166Z,100.00
2018-12-24T19:54:49.537Z,100.00
2018-12-24T19:57:21.122Z,100.00
2018-12-24T19:59:52.591Z,100.00
2018-12-24T20:02:25.071Z,100.00
2018-12-24T20:04:56.690Z,100.00
2018-12-24T20:07:32.654Z,100.00
2018-12-24T20:10:05.059Z,100.00
2018-12-24T20:12:37.458Z,100.00
2018-12-24T20:15:08.925Z,100.00
2018-12-24T20:17:40.462Z,100.00
2018-12-24T20:20:12.310Z,100.00
2018-12-24T20:22:44.264Z,100.00
2018-12-24T20:25:17.060Z,100.00
2018-12-24T20:27:49.091Z,100.00
2018-12-24T20:30:20.536Z,100.00
2018-12-24T20:32:51.926Z,100.00
2018-12-24T20:35:23.385Z,100.00
2018-12-24T20:37:54.843Z,100.00
2018-12-24T20:40:26.243Z,100.00
2018-12-24T20:42:59.044Z,100.00
2018-12-24T20:45:30.767Z,100.00
2018-12-24T20:48:06.815Z,100.00
2018-12-24T20:50:36.275Z,100.00
2018-12-24T20:53:08.069Z,100.00
2018-12-24T20:55:39.576Z,100.00
2018-12-24T20:58:10.988Z,100.00
2018-12-24T21:00:42.506Z,100.00
2018-12-24T21:03:14.462Z,100.00
2018-12-24T21:05:45.864Z,100.00
2018-12-24T21:08:17.328Z,100.00
2018-12-24T21:10:48.825Z,100.00
2018-12-24T21:13:20.158Z,100.00
2018-12-24T21:15:51.643Z,100.00
2018-12-24T21:18:23.058Z,100.00
2018-12-24T21:20:54.507Z,100.00
2018-12-24T21:23:27.204Z,100.00
2018-12-24T21:25:58.920Z,100.00
2018-12-24T21:28:30.642Z,100.00
2018-12-24T21:31:02.125Z,100.00
2018-12-24T21:33:33.850Z,100.00
2018-12-24T21:36:05.299Z,100.00
2018-12-24T21:38:36.766Z,100.00
2018-12-24T21:41:08.228Z,100.00
2018-12-24T21:43:39.693Z,100.00
2018-12-24T21:46:11.065Z,100.00
2018-12-24T21:48:42.535Z,100.00
2018-12-24T21:51:13.982Z,100.00
2018-12-24T21:53:45.408Z,100.00
2018-12-24T21:56:16.780Z,100.00
2018-12-24T21:58:49.206Z,100.00
2018-12-24T22:01:20.689Z,100.00
2018-12-24T22:03:52.142Z,100.00
2018-12-24T22:06:23.609Z,100.00
2018-12-24T22:08:55.033Z,100.00
2018-12-24T22:11:27.477Z,100.00
2018-12-24T22:13:59.060Z,100.00
2018-12-24T22:16:30.587Z,100.00
2018-12-24T22:19:02.059Z,100.00
2018-12-24T22:21:33.532Z,100.00
2018-12-24T22:24:05.185Z,100.00
2018-12-24T22:26:37.597Z,100.00
2018-12-24T22:29:10.882Z,100.00
2018-12-24T22:31:42.269Z,100.00
2018-12-24T22:34:13.790Z,100.00
2018-12-24T22:36:45.272Z,100.00
2018-12-24T22:39:16.631Z,100.00
2018-12-24T22:41:48.387Z,100.00
2018-12-24T22:44:19.766Z,100.00
2018-12-24T22:46:51.251Z,100.00
2018-12-24T22:49:22.600Z,100.00
2018-12-24T22:51:54.083Z,100.00
2018-12-24T22:54:25.466Z,100.00
2018-12-24T22:56:56.886Z,100.00
2018-12-24T22:59:28.333Z,100.00
2018-12-24T23:02:00.361Z,100.00
2018-12-24T23:04:31.848Z,100.00
2018-12-24T23:07:03.372Z,100.00
2018-12-24T23:09:34.806Z,100.00
2018-12-24T23:12:06.238Z,100.00
2018-12-24T23:14:37.645Z,100.00
2018-12-24T23:17:09.098Z,100.00
2018-12-24T23:19:40.884Z,100.00
2018-12-24T23:22:12.318Z,100.00
2018-12-24T23:24:43.790Z,100.00
2018-12-24T23:27:15.296Z,100.00
2018-12-24T23:29:46.731Z,100.00
2018-12-24T23:32:18.141Z,100.00
2018-12-24T23:34:49.527Z,100.00
2018-12-24T23:37:21.009Z,100.00
2018-12-24T23:39:52.483Z,100.00
2018-12-24T23:42:23.922Z,100.00
2018-12-24T23:44:55.674Z,100.00
2018-12-24T23:47:27.132Z,100.00
2018-12-24T23:49:58.490Z,100.00
2018-12-24T23:52:31.161Z,100.00
2018-12-24T23:55:02.555Z,100.00
2018-12-24T23:57:35.379Z,100.00
